Time;durP1;ratioP1;P1;durP2;ratioP2;P2;SDS_P1;SDS_P2;PMS_P1;PMS_P2;Temp;Humidity;BMP_temperature;BMP_pressure;BME280_temperature;BME280_humidity;BME280_pressure;Samples;Min_cycle;Max_cycle;Signal;HPM_P1;HPM_P2
2023/04/29 00:01:40;;;;;;;44.13;23.80;;;;;;;11.16;92.76;101389.28;5055051;28;20419;-67
2023/04/29 00:04:06;;;;;;;38.83;22.67;;;;;;;11.15;93.16;101391.03;5054693;28;20041;-65
2023/04/29 00:06:32;;;;;;;38.15;21.63;;;;;;;11.13;92.67;101392.75;5055016;28;20441;-65
2023/04/29 00:08:57;;;;;;;37.00;22.10;;;;;;;11.09;92.49;101385.66;5054782;28;20033;-65
2023/04/29 00:11:22;;;;;;;38.97;21.25;;;;;;;11.09;92.98;101388.31;5055125;28;20028;-65
2023/04/29 00:13:48;;;;;;;35.30;21.50;;;;;;;11.13;93.01;101398.03;5037003;28;20497;-65
2023/04/29 00:16:13;;;;;;;34.70;20.77;;;;;;;11.17;93.32;101397.22;5054586;28;20108;-65
2023/04/29 00:18:39;;;;;;;37.72;21.90;;;;;;;11.16;92.86;101398.09;5054775;28;20033;-66
2023/04/29 00:21:04;;;;;;;35.35;20.67;;;;;;;11.15;92.76;101398.97;5054557;28;20029;-66
2023/04/29 00:23:31;;;;;;;33.97;20.73;;;;;;;11.19;93.43;101402.56;5054915;28;20029;-65
2023/04/29 00:25:57;;;;;;;34.33;21.13;;;;;;;11.11;92.13;101397.13;5054567;28;20029;-65
2023/04/29 00:28:22;;;;;;;36.13;22.30;;;;;;;11.04;92.83;101405.81;5054450;28;20120;-65
2023/04/29 00:30:47;;;;;;;36.67;22.50;;;;;;;10.96;93.10;101407.44;5054359;28;20025;-65
2023/04/29 00:33:13;;;;;;;37.60;22.52;;;;;;;10.87;93.54;101407.25;5054368;28;20056;-65
2023/04/29 00:35:38;;;;;;;39.03;23.48;;;;;;;10.77;93.71;101400.94;5036725;28;20025;-65
2023/04/29 00:38:04;;;;;;;37.35;22.13;;;;;;;10.82;94.37;101420.41;5054323;28;20107;-65
2023/04/29 00:40:29;;;;;;;39.47;23.52;;;;;;;10.85;94.45;101414.28;5054346;28;20063;-65
2023/04/29 00:42:54;;;;;;;40.33;23.63;;;;;;;10.89;94.25;101422.31;5054327;28;20017;-65
2023/04/29 00:45:20;;;;;;;36.42;22.45;;;;;;;10.96;94.73;101407.44;5054289;28;20053;-65
2023/04/29 00:47:45;;;;;;;35.95;21.05;;;;;;;11.02;93.82;101420.78;5036225;28;20116;-64
2023/04/29 00:50:11;;;;;;;29.67;20.50;;;;;;;10.95;93.00;101417.13;5054120;28;20029;-65
2023/04/29 00:52:38;;;;;;;28.13;19.55;;;;;;;10.93;93.32;101420.63;5036251;28;20028;-64
2023/04/29 00:55:06;;;;;;;30.58;20.48;;;;;;;10.86;92.64;101427.53;5054187;28;20036;-65
2023/04/29 00:57:33;;;;;;;32.03;20.35;;;;;;;10.90;93.37;101423.19;5054020;28;20096;-65
2023/04/29 00:59:59;;;;;;;30.92;20.55;;;;;;;10.85;93.27;101428.41;5054123;28;20112;-65
2023/04/29 01:02:25;;;;;;;27.92;20.25;;;;;;;10.72;92.80;101429.91;5053301;28;20155;-65
2023/04/29 01:04:51;;;;;;;28.73;19.40;;;;;;;10.67;93.52;101433.34;5053856;28;20033;-65
2023/04/29 01:07:22;;;;;;;30.08;19.83;;;;;;;10.61;93.94;101435.84;5053783;28;20039;-65
2023/04/29 01:10:06;;;;;;;28.43;19.70;;;;;;;10.63;94.36;101432.38;5053899;28;20021;-65
2023/04/29 01:12:48;;;;;;;31.52;20.25;;;;;;;10.56;93.33;101437.50;5054090;28;20684;-65
2023/04/29 01:15:21;;;;;;;31.17;21.05;;;;;;;10.47;93.34;101436.47;5053827;28;20455;-65
2023/04/29 01:18:12;;;;;;;30.95;21.38;;;;;;;10.46;94.50;101441.72;5053603;28;20390;-65
2023/04/29 01:20:38;;;;;;;33.05;21.17;;;;;;;10.43;94.58;101433.72;5053283;28;20080;-65
2023/04/29 01:23:04;;;;;;;31.00;21.42;;;;;;;10.36;94.53;101445.91;5053427;28;20033;-64
2023/04/29 01:25:29;;;;;;;33.20;21.95;;;;;;;10.39;94.54;101445.09;5053464;28;20501;-65
2023/04/29 01:27:55;;;;;;;31.08;20.83;;;;;;;10.44;94.87;101451.34;5053568;28;20040;-65
2023/04/29 01:30:38;;;;;;;31.27;21.38;;;;;;;10.47;94.59;101454.94;5053168;28;20052;-65
2023/04/29 01:33:48;;;;;;;29.60;20.65;;;;;;;10.47;94.98;101454.06;5044046;28;20025;-64
2023/04/29 01:36:38;;;;;;;31.33;20.80;;;;;;;10.47;95.11;101457.59;5029399;28;20038;-65
2023/04/29 01:39:30;;;;;;;34.22;22.77;;;;;;;10.46;94.66;101455.81;5033247;28;20033;-65
2023/04/29 01:42:17;;;;;;;32.92;21.40;;;;;;;10.49;95.35;101455.91;5033297;28;20091;-64
2023/04/29 01:44:42;;;;;;;31.30;21.00;;;;;;;10.51;94.94;101458.56;5033283;28;20033;-65
2023/04/29 01:47:12;;;;;;;31.75;21.27;;;;;;;10.44;94.93;101456.63;5032837;28;20029;-65
2023/04/29 01:49:38;;;;;;;33.00;20.60;;;;;;;10.50;95.28;101462.94;5032990;28;20065;-65
2023/04/29 01:52:04;;;;;;;35.28;21.48;;;;;;;10.50;95.34;101462.94;5033253;28;20036;-65
2023/04/29 01:54:30;;;;;;;34.80;21.30;;;;;;;10.49;94.61;101461.19;5033117;28;20029;-65
2023/04/29 01:56:57;;;;;;;32.35;20.67;;;;;;;10.52;94.93;101457.69;5015559;28;20497;-65
2023/04/29 01:59:22;;;;;;;33.78;21.60;;;;;;;10.60;95.28;101460.50;5032966;28;20033;-65
2023/04/29 02:01:48;;;;;;;32.13;20.00;;;;;;;10.64;94.77;101465.00;5033070;28;20080;-65
2023/04/29 02:04:13;;;;;;;33.60;21.50;;;;;;;10.66;93.97;101471.19;5048621;28;20119;-65
2023/04/29 02:06:39;;;;;;;33.88;21.23;;;;;;;10.62;94.11;101470.25;5052925;28;20029;-65
2023/04/29 02:09:04;;;;;;;31.33;20.90;;;;;;;10.65;94.50;101472.03;5052904;28;20104;-65
2023/04/29 02:11:30;;;;;;;34.88;21.13;;;;;;;10.70;94.10;101468.63;5052920;28;20029;-65
2023/04/29 02:13:55;;;;;;;33.75;21.38;;;;;;;10.77;93.94;101475.81;5035337;28;20522;-65
2023/04/29 02:16:21;;;;;;;35.78;21.75;;;;;;;10.76;93.44;101473.16;5052852;28;20029;-65
2023/04/29 02:18:46;;;;;;;42.72;22.50;;;;;;;10.75;93.28;101477.56;5052828;28;20037;-65
2023/04/29 02:21:11;;;;;;;37.05;22.90;;;;;;;10.68;93.16;101482.69;5052795;28;20544;-64
2023/04/29 02:23:37;;;;;;;36.58;22.77;;;;;;;10.66;94.04;101482.66;5052698;28;20036;-64
2023/04/29 02:26:05;;;;;;;40.17;23.48;;;;;;;10.57;93.87;101484.22;5052730;28;20107;-65
2023/04/29 02:28:31;;;;;;;39.60;23.75;;;;;;;10.57;94.51;101486.84;5052888;28;20087;-65
2023/04/29 02:30:56;;;;;;;38.10;23.30;;;;;;;10.59;94.63;101493.06;5034549;28;20033;-65
2023/04/29 02:33:22;;;;;;;42.20;24.70;;;;;;;10.59;94.57;101493.06;5053604;28;20021;-65
2023/04/29 02:35:47;;;;;;;47.28;25.85;;;;;;;10.62;94.72;101498.41;5038715;28;20029;-67
2023/04/29 02:38:13;;;;;;;42.33;24.77;;;;;;;10.60;94.71;101500.13;5056721;28;20025;-65
2023/04/29 02:40:42;;;;;;;43.05;25.27;;;;;;;10.53;94.80;101512.31;5056588;28;20052;-64
2023/04/29 02:43:08;;;;;;;43.90;24.85;;;;;;;10.57;95.11;101508.00;5056526;28;20494;-64
2023/04/29 02:45:34;;;;;;;45.17;24.48;;;;;;;10.56;95.40;101514.16;5056704;28;20025;-65
2023/04/29 02:47:59;;;;;;;35.95;23.02;;;;;;;10.52;95.84;101518.47;5056213;28;20479;-65
2023/04/29 02:50:25;;;;;;;41.92;24.10;;;;;;;10.47;95.50;101520.13;5056360;28;20025;-65
2023/04/29 02:52:50;;;;;;;41.78;24.10;;;;;;;10.42;96.38;101521.78;5056380;28;20431;-65
2023/04/29 02:55:17;;;;;;;42.53;24.80;;;;;;;10.43;96.77;101526.19;5056245;28;20498;-65
2023/04/29 02:57:43;;;;;;;45.80;26.08;;;;;;;10.38;96.73;101526.09;5056473;28;20051;-65
2023/04/29 03:00:09;;;;;;;42.42;25.40;;;;;;;10.36;97.03;101529.53;5056224;28;20025;-65
2023/04/29 03:02:36;;;;;;;44.95;25.08;;;;;;;10.34;97.54;101524.25;5055647;28;20077;-65
2023/04/29 03:05:02;;;;;;;46.67;26.27;;;;;;;10.35;97.21;101533.06;5056030;28;20053;-64
2023/04/29 03:07:28;;;;;;;42.40;25.30;;;;;;;10.40;97.83;101534.03;5056255;28;20040;-65
2023/04/29 03:09:54;;;;;;;42.22;25.58;;;;;;;10.42;97.37;101530.59;5056221;28;20065;-65
2023/04/29 03:12:20;;;;;;;45.88;25.40;;;;;;;10.45;97.47;101532.41;5055914;28;20418;-66
2023/04/29 03:14:46;;;;;;;44.70;25.40;;;;;;;10.48;96.97;101536.00;5056204;28;20029;-65
2023/04/29 03:17:11;;;;;;;45.08;25.33;;;;;;;10.50;97.45;101538.69;5055847;28;20043;-65
2023/04/29 03:19:37;;;;;;;44.80;24.77;;;;;;;10.56;97.32;101536.16;5055736;28;20382;-65
2023/04/29 03:22:02;;;;;;;41.03;24.20;;;;;;;10.56;97.11;101540.56;5055803;28;20100;-65
2023/04/29 03:24:27;;;;;;;41.78;24.35;;;;;;;10.55;97.09;101539.69;5055724;28;20025;-65
2023/04/29 03:26:53;;;;;;;41.95;24.42;;;;;;;10.51;96.72;101544.00;5055722;28;20423;-65
2023/04/29 03:29:19;;;;;;;43.03;23.63;;;;;;;10.51;96.58;101545.75;5055728;28;20029;-65
2023/04/29 03:31:44;;;;;;;40.83;23.52;;;;;;;10.51;96.45;101551.94;5055638;28;20030;-65
2023/04/29 03:34:10;;;;;;;43.47;24.35;;;;;;;10.47;97.14;101550.06;5055561;28;20239;-64
2023/04/29 03:36:36;;;;;;;43.90;23.38;;;;;;;10.50;96.93;101554.53;5038060;28;20474;-65
2023/04/29 03:39:01;;;;;;;41.15;23.33;;;;;;;10.46;96.90;101550.94;5055510;28;20032;-65
2023/04/29 03:41:27;;;;;;;41.60;23.23;;;;;;;10.47;96.70;101552.72;5055430;28;20033;-65
2023/04/29 03:43:53;;;;;;;39.95;23.10;;;;;;;10.44;96.67;101551.75;5055020;28;20037;-65
2023/04/29 03:46:19;;;;;;;43.35;22.13;;;;;;;10.43;96.68;101552.63;5055570;28;20025;-65
2023/04/29 03:48:44;;;;;;;39.72;21.25;;;;;;;10.44;96.75;101557.03;5055193;28;20021;-65
2023/04/29 03:51:10;;;;;;;38.30;22.13;;;;;;;10.43;96.65;101558.78;5055528;28;20021;-65
2023/04/29 03:53:36;;;;;;;38.10;21.02;;;;;;;10.46;96.62;101557.97;5055260;28;20486;-64
2023/04/29 03:56:02;;;;;;;35.88;20.20;;;;;;;10.50;97.00;101560.72;5055147;28;20558;-65
2023/04/29 03:58:27;;;;;;;34.38;19.33;;;;;;;10.48;96.36;101565.06;5055178;28;20111;-65
2023/04/29 04:00:53;;;;;;;34.10;20.05;;;;;;;10.49;96.13;101564.22;5055162;28;20037;-64
2023/04/29 04:03:19;;;;;;;36.22;19.52;;;;;;;10.48;96.33;101565.06;5054872;28;20136;-65
2023/04/29 04:05:44;;;;;;;33.67;19.58;;;;;;;10.49;96.06;101572.16;5055332;28;20051;-65
2023/04/29 04:08:10;;;;;;;36.72;20.23;;;;;;;10.53;96.12;101570.44;5054893;28;20513;-65
2023/04/29 04:10:35;;;;;;;33.40;19.60;;;;;;;10.55;95.97;101570.50;5054912;28;20025;-65
2023/04/29 04:13:01;;;;;;;37.08;19.88;;;;;;;10.59;95.78;101578.53;5055060;28;20446;-65
2023/04/29 04:15:26;;;;;;;35.03;20.05;;;;;;;10.64;95.76;101581.28;5055034;28;20040;-65
2023/04/29 04:17:52;;;;;;;30.95;19.65;;;;;;;10.61;95.59;101584.72;5054735;28;20518;-65
2023/04/29 04:20:17;;;;;;;33.92;19.92;;;;;;;10.69;95.69;101583.16;5055042;28;20029;-65
2023/04/29 04:22:42;;;;;;;39.58;20.52;;;;;;;10.68;95.32;101584.03;5054688;28;20035;-65
2023/04/29 04:25:08;;;;;;;35.40;19.40;;;;;;;10.73;95.31;101585.00;5054583;28;20024;-65
2023/04/29 04:27:34;;;;;;;31.65;19.75;;;;;;;10.73;95.09;101578.84;5054771;28;20383;-65
2023/04/29 04:29:59;;;;;;;36.05;19.60;;;;;;;10.74;94.44;101596.47;5054507;28;20501;-64
2023/04/29 04:32:25;;;;;;;36.55;19.42;;;;;;;10.78;94.79;101593.03;5054364;28;20025;-65
2023/04/29 04:34:51;;;;;;;35.20;20.13;;;;;;;10.78;94.64;101593.94;5036430;28;20023;-65
2023/04/29 04:37:16;;;;;;;33.47;19.88;;;;;;;10.77;95.04;101600.06;5054666;28;20025;-65
2023/04/29 04:39:42;;;;;;;37.58;20.60;;;;;;;10.77;94.50;101597.44;5054251;28;20371;-65
2023/04/29 04:42:07;;;;;;;34.13;19.67;;;;;;;10.74;94.40;101596.47;5054060;28;20411;-65
2023/04/29 04:44:32;;;;;;;35.95;21.02;;;;;;;10.78;94.34;101604.50;5053952;28;20108;-65
2023/04/29 04:47:00;;;;;;;35.22;19.80;;;;;;;10.80;94.44;101604.56;5036043;28;20095;-65
2023/04/29 04:49:26;;;;;;;35.97;18.73;;;;;;;10.78;94.05;101609.78;5053885;28;20025;-64
2023/04/29 04:51:52;;;;;;;32.70;18.35;;;;;;;10.81;94.25;101618.66;5053997;28;20033;-65
2023/04/29 04:54:18;;;;;;;33.88;19.23;;;;;;;10.82;93.94;101618.69;5054090;28;20067;-65
2023/04/29 04:56:43;;;;;;;32.60;19.30;;;;;;;10.88;94.06;101629.41;5052803;28;20527;-65
2023/04/29 04:59:08;;;;;;;30.73;19.17;;;;;;;10.92;93.63;101633.91;5053390;28;20029;-65
2023/04/29 05:01:34;;;;;;;31.48;18.35;;;;;;;10.87;93.71;101638.19;5053613;28;20036;-65
2023/04/29 05:03:59;;;;;;;33.38;18.90;;;;;;;10.90;93.51;101643.53;5052902;28;20045;-65
2023/04/29 05:06:25;;;;;;;29.42;17.70;;;;;;;10.88;93.57;101649.69;5053525;28;20099;-65
2023/04/29 05:08:50;;;;;;;34.72;18.88;;;;;;;10.84;93.60;101640.78;5053238;28;20036;-65
2023/04/29 05:11:20;;;;;;;30.98;17.92;;;;;;;10.85;93.60;101650.50;5053084;28;20032;-64
2023/04/29 05:13:46;;;;;;;30.25;18.05;;;;;;;10.85;94.12;101649.59;5053452;28;20025;-65
2023/04/29 05:16:12;;;;;;;31.08;18.27;;;;;;;10.84;94.00;101640.78;5053027;28;20390;-65
2023/04/29 05:18:38;;;;;;;29.17;18.13;;;;;;;10.83;93.61;101648.66;5053043;28;20107;-64
2023/04/29 05:21:03;;;;;;;28.70;17.70;;;;;;;10.83;93.12;101668.03;5052860;28;20029;-65
2023/04/29 05:23:29;;;;;;;29.45;17.05;;;;;;;10.77;93.61;101658.22;5053065;28;20029;-65
2023/04/29 05:25:54;;;;;;;29.70;18.55;;;;;;;10.72;93.68;101659.88;5052877;28;20114;-65
2023/04/29 05:28:20;;;;;;;31.85;17.77;;;;;;;10.71;93.99;101667.78;5052781;28;20052;-65
2023/04/29 05:30:46;;;;;;;32.53;17.67;;;;;;;10.66;94.61;101669.41;5034681;28;20257;-65
2023/04/29 05:33:12;;;;;;;30.58;17.92;;;;;;;10.65;94.85;101681.72;5035004;28;20222;-65
2023/04/29 05:35:37;;;;;;;26.10;17.05;;;;;;;10.64;94.85;101679.06;5052673;28;20505;-64
2023/04/29 05:38:03;;;;;;;30.75;18.13;;;;;;;10.68;94.91;101675.66;5052575;28;20029;-65
2023/04/29 05:40:28;;;;;;;29.92;17.58;;;;;;;10.67;94.57;101673.88;5052383;28;20120;-65
2023/04/29 05:42:54;;;;;;;25.17;17.38;;;;;;;10.71;95.07;101684.53;5052816;28;20028;-65
2023/04/29 05:45:19;;;;;;;26.33;17.33;;;;;;;10.70;94.38;101681.84;5052695;28;20107;-65
2023/04/29 05:47:45;;;;;;;32.92;17.15;;;;;;;10.74;94.25;101681.06;5052358;28;20074;-65
2023/04/29 05:50:10;;;;;;;26.48;16.92;;;;;;;10.72;94.54;101690.72;5052685;28;20037;-65
2023/04/29 05:52:36;;;;;;;27.98;17.48;;;;;;;10.79;94.98;101695.28;5034443;28;20029;-65
2023/04/29 05:55:02;;;;;;;25.15;16.92;;;;;;;10.75;94.41;101689.03;5052532;28;20018;-65
2023/04/29 05:57:27;;;;;;;28.13;17.58;;;;;;;10.74;94.08;101695.16;5052473;28;20029;-65
2023/04/29 05:59:54;;;;;;;27.05;17.67;;;;;;;10.75;94.78;101702.25;5052771;28;20035;-64
2023/04/29 06:02:19;;;;;;;25.85;16.80;;;;;;;10.76;94.30;101703.16;5034074;28;20528;-64
2023/04/29 06:04:46;;;;;;;28.02;17.08;;;;;;;10.82;94.75;101712.97;5051881;28;20045;-65
2023/04/29 06:07:12;;;;;;;30.23;16.88;;;;;;;10.78;94.37;101712.88;5052172;28;20418;-65
2023/04/29 06:09:38;;;;;;;28.10;16.42;;;;;;;10.81;93.96;101716.47;5052242;28;20060;-65
2023/04/29 06:12:03;;;;;;;26.45;17.23;;;;;;;10.84;94.09;101721.84;5052357;28;20028;-65
2023/04/29 06:14:29;;;;;;;28.70;16.75;;;;;;;10.84;94.43;101717.44;5051782;28;20037;-64
2023/04/29 06:16:55;;;;;;;25.42;16.35;;;;;;;10.84;94.19;101721.84;5051995;28;20024;-65
2023/04/29 06:19:20;;;;;;;25.33;16.75;;;;;;;10.83;94.12;101722.69;5034523;28;20029;-65
2023/04/29 06:21:46;;;;;;;27.00;16.85;;;;;;;10.84;94.57;101727.13;5052487;28;20029;-65
2023/04/29 06:24:11;;;;;;;27.40;16.98;;;;;;;10.82;94.42;101728.84;5034306;28;20056;-65
2023/04/29 06:26:37;;;;;;;27.75;17.15;;;;;;;10.78;95.02;101728.75;5051926;28;20036;-65
2023/04/29 06:29:02;;;;;;;25.80;17.02;;;;;;;10.80;94.83;101731.44;5052315;28;20029;-65
2023/04/29 06:31:28;;;;;;;29.35;17.13;;;;;;;10.77;94.95;101740.19;5051935;28;20025;-65
2023/04/29 06:33:53;;;;;;;27.17;16.52;;;;;;;10.79;94.64;101748.16;5052121;28;20084;-65
2023/04/29 06:36:19;;;;;;;28.38;16.67;;;;;;;10.79;94.18;101745.50;5051812;28;20029;-67
2023/04/29 06:38:44;;;;;;;24.08;16.10;;;;;;;10.83;94.61;101751.75;5052125;28;20040;-66
2023/04/29 06:41:10;;;;;;;27.42;16.83;;;;;;;10.86;94.55;101751.84;5051778;28;20120;-66
2023/04/29 06:43:35;;;;;;;25.88;16.30;;;;;;;10.87;94.04;101750.97;5051928;28;20079;-65
2023/04/29 06:46:01;;;;;;;25.33;14.77;;;;;;;10.93;93.75;101764.38;5051971;28;20029;-66
2023/04/29 06:48:26;;;;;;;26.65;15.82;;;;;;;10.87;93.70;101765.09;5052010;28;20483;-65
2023/04/29 06:50:54;;;;;;;24.15;16.00;;;;;;;10.87;93.34;101756.28;5052182;28;20021;-65
2023/04/29 06:53:21;;;;;;;28.83;15.95;;;;;;;10.91;94.32;101764.31;5051746;28;20014;-65
2023/04/29 06:55:46;;;;;;;26.13;15.48;;;;;;;10.97;93.81;101772.41;5051794;28;20036;-65
2023/04/29 06:58:13;;;;;;;25.38;16.08;;;;;;;11.03;93.84;101767.25;5051990;28;20037;-65
2023/04/29 07:00:39;;;;;;;23.92;15.60;;;;;;;11.09;93.63;101781.47;5051522;28;20033;-65
2023/04/29 07:03:04;;;;;;;25.50;15.27;;;;;;;11.16;93.12;101786.94;5051519;28;20040;-65
2023/04/29 07:05:29;;;;;;;24.60;14.80;;;;;;;11.17;92.60;101786.09;5051619;28;20383;-66
2023/04/29 07:07:55;;;;;;;23.10;14.55;;;;;;;11.22;92.54;101795.03;5051490;28;20486;-65
2023/04/29 07:10:20;;;;;;;23.13;15.10;;;;;;;11.23;91.36;101793.28;5051735;28;20025;-65
2023/04/29 07:12:46;;;;;;;22.02;14.02;;;;;;;11.27;90.76;101803.97;5051582;28;20117;-66
2023/04/29 07:15:11;;;;;;;22.80;14.02;;;;;;;11.27;90.47;101803.09;5051805;28;20029;-65
2023/04/29 07:17:37;;;;;;;20.90;14.02;;;;;;;11.25;90.47;101810.09;5051637;28;20071;-65
2023/04/29 07:20:03;;;;;;;21.42;13.70;;;;;;;11.26;90.16;101807.50;5053327;28;20128;-65
2023/04/29 07:22:28;;;;;;;20.95;13.43;;;;;;;11.25;89.74;101803.03;5055334;28;20087;-65
2023/04/29 07:24:54;;;;;;;19.80;14.00;;;;;;;11.31;89.81;101819.94;5055388;28;20052;-66
2023/04/29 07:27:20;;;;;;;22.85;13.82;;;;;;;11.31;89.99;101807.59;5055213;28;20132;-65
2023/04/29 07:29:45;;;;;;;20.52;13.20;;;;;;;11.36;89.71;101815.63;5055024;28;20028;-65
2023/04/29 07:32:11;;;;;;;19.30;13.35;;;;;;;11.39;88.91;101821.91;5054969;28;20078;-65
2023/04/29 07:34:36;;;;;;;19.48;13.90;;;;;;;11.44;89.54;101824.66;5054890;28;20075;-65
2023/04/29 07:37:02;;;;;;;20.25;13.05;;;;;;;11.45;89.64;101827.31;5037248;28;20029;-64
2023/04/29 07:39:28;;;;;;;19.20;13.30;;;;;;;11.45;89.12;101824.69;5037003;28;20044;-65
2023/04/29 07:41:54;;;;;;;20.30;13.02;;;;;;;11.53;89.35;101824.84;5054935;28;20025;-65
2023/04/29 07:44:20;;;;;;;17.75;11.95;;;;;;;11.59;88.55;101829.38;5055098;28;20023;-65
2023/04/29 07:46:46;;;;;;;19.90;13.30;;;;;;;11.58;87.93;101830.25;5054688;28;20064;-65
2023/04/29 07:49:12;;;;;;;19.77;12.90;;;;;;;11.59;87.98;101834.69;5054472;28;20061;-64
2023/04/29 07:51:41;;;;;;;20.33;13.52;;;;;;;11.65;88.12;101830.44;5054489;28;20028;-65
2023/04/29 07:54:06;;;;;;;18.05;12.38;;;;;;;11.67;87.27;101827.81;5054613;28;20021;-65
2023/04/29 07:56:32;;;;;;;19.05;12.85;;;;;;;11.81;88.04;101842.22;5054513;28;20032;-65
2023/04/29 07:59:00;;;;;;;19.85;12.52;;;;;;;11.81;86.85;101842.22;5054431;28;20069;-65
2023/04/29 08:01:25;;;;;;;18.55;13.10;;;;;;;11.85;87.28;101845.88;5054194;28;20037;-65
2023/04/29 08:03:51;;;;;;;17.15;12.75;;;;;;;11.94;87.19;101844.31;5053973;28;20490;-65
2023/04/29 08:06:19;;;;;;;21.73;12.82;;;;;;;12.00;87.71;101844.44;5054222;28;20048;-64
2023/04/29 08:08:45;;;;;;;17.55;12.50;;;;;;;12.08;87.61;101849.03;5054178;28;20040;-65
2023/04/29 08:11:20;;;;;;;19.50;13.13;;;;;;;12.14;86.94;101850.03;5054091;28;20422;-64
2023/04/29 08:13:46;;;;;;;18.73;12.75;;;;;;;12.15;86.96;101851.81;5054052;28;20058;-65
2023/04/29 08:16:12;;;;;;;21.15;12.98;;;;;;;12.19;86.60;101856.31;5053945;28;20525;-64
2023/04/29 08:18:38;;;;;;;19.60;12.90;;;;;;;12.23;86.27;101852.84;5053936;28;20176;-65
2023/04/29 08:21:04;;;;;;;18.45;12.13;;;;;;;12.24;85.43;101854.63;5054013;28;20116;-64
2023/04/29 08:23:29;;;;;;;19.88;12.85;;;;;;;12.31;85.50;101863.63;5053789;28;20029;-65
2023/04/29 08:25:54;;;;;;;17.60;12.88;;;;;;;12.39;85.77;101855.81;5054161;28;20351;-65
2023/04/29 08:28:24;;;;;;;21.23;12.32;;;;;;;12.50;85.44;101864.84;5053700;28;20461;-65
2023/04/29 08:30:49;;;;;;;17.02;11.75;;;;;;;12.58;85.17;101862.34;5053427;28;20035;-65
2023/04/29 08:33:15;;;;;;;18.95;12.63;;;;;;;12.75;85.99;101863.56;5053674;28;20025;-65
2023/04/29 08:35:41;;;;;;;16.90;12.32;;;;;;;12.94;85.36;101864.81;5035825;28;20033;-64
2023/04/29 08:38:08;;;;;;;18.88;12.00;;;;;;;13.10;85.00;101866.81;5053626;28;20025;-65
2023/04/29 08:40:41;;;;;;;16.90;11.48;;;;;;;13.29;82.52;101870.72;5053934;28;20099;-64
2023/04/29 08:43:08;;;;;;;19.02;12.10;;;;;;;13.48;82.58;101869.22;5053615;28;20029;-65
2023/04/29 08:45:35;;;;;;;15.20;11.65;;;;;;;13.72;80.97;101863.41;5053613;28;20025;-65
2023/04/29 08:48:02;;;;;;;21.45;11.82;;;;;;;13.93;80.33;101868.13;5053360;28;20017;-65
2023/04/29 08:50:29;;;;;;;22.25;11.13;;;;;;;13.98;78.70;101872.63;5053641;28;20033;-65
2023/04/29 08:52:55;;;;;;;19.42;10.80;;;;;;;13.95;76.70;101879.66;5053508;28;20032;-65
2023/04/29 08:55:20;;;;;;;20.38;11.27;;;;;;;13.90;77.53;101873.38;5053079;28;20071;-64
2023/04/29 08:57:49;;;;;;;18.30;11.00;;;;;;;13.90;77.71;101878.69;5035643;28;20033;-65
2023/04/29 09:00:14;;;;;;;18.15;10.55;;;;;;;13.90;77.23;101889.31;5053462;28;20021;-65
2023/04/29 09:02:44;;;;;;;16.58;10.88;;;;;;;13.93;77.77;101886.72;5053157;28;20025;-65
2023/04/29 09:05:10;;;;;;;16.33;10.93;;;;;;;14.00;76.43;101880.59;5052901;28;20140;-65
2023/04/29 09:07:40;;;;;;;18.55;11.18;;;;;;;14.13;76.08;101884.31;5053198;28;20068;-65
2023/04/29 09:10:06;;;;;;;16.38;10.75;;;;;;;14.31;77.74;101879.25;5053059;28;20029;-65
2023/04/29 09:12:32;;;;;;;18.15;11.68;;;;;;;14.68;78.97;101885.88;5035012;28;20047;-64
2023/04/29 09:14:57;;;;;;;20.13;11.77;;;;;;;14.92;76.76;101885.25;5052943;28;20522;-65
2023/04/29 09:17:46;;;;;;;17.40;11.00;;;;;;;15.16;75.25;101900.56;5052917;28;20021;-65
2023/04/29 09:20:20;;;;;;;17.45;10.32;;;;;;;15.18;72.74;101893.47;5052766;28;20025;-66
2023/04/29 09:22:52;;;;;;;17.15;10.30;;;;;;;15.11;72.37;101904.03;5035196;28;20028;-65
2023/04/29 09:25:18;;;;;;;16.70;10.45;;;;;;;15.08;72.36;101898.72;5052925;28;20029;-65
2023/04/29 09:27:43;;;;;;;18.80;11.32;;;;;;;15.09;73.27;101897.81;5052916;28;20503;-65
2023/04/29 09:30:11;;;;;;;17.58;11.00;;;;;;;15.44;75.46;101891.00;5052830;28;20394;-65
2023/04/29 09:32:36;;;;;;;17.75;10.68;;;;;;;15.76;72.30;101891.28;5034455;28;20037;-65
2023/04/29 09:35:28;;;;;;;16.13;10.35;;;;;;;15.97;72.06;101894.91;5052586;28;20032;-64
2023/04/29 09:38:07;;;;;;;21.10;10.35;;;;;;;16.01;70.73;101892.28;5048579;28;20394;-64
2023/04/29 09:40:33;;;;;;;16.35;9.63;;;;;;;16.01;68.65;101894.94;5052683;28;20493;-64
2023/04/29 09:43:00;;;;;;;14.32;9.88;;;;;;;16.29;69.78;101892.41;5051963;28;20545;-65
2023/04/29 09:45:36;;;;;;;18.25;11.00;;;;;;;16.85;72.09;101893.50;5052765;28;20021;-65
2023/04/29 09:48:06;;;;;;;15.43;9.57;;;;;;;17.16;68.59;101900.63;5052309;28;20033;-65
2023/04/29 09:50:32;;;;;;;19.20;9.15;;;;;;;17.26;67.26;101893.53;5052541;28;20017;-65
2023/04/29 09:52:59;;;;;;;16.45;9.43;;;;;;;17.62;65.95;101899.75;5052559;28;20021;-65
2023/04/29 09:55:26;;;;;;;16.35;9.32;;;;;;;17.88;64.16;101897.03;5052709;28;20032;-65
2023/04/29 09:57:52;;;;;;;15.30;9.35;;;;;;;17.86;62.16;101901.50;5052514;28;20120;-65
2023/04/29 10:00:18;;;;;;;17.25;9.20;;;;;;;17.68;62.12;101905.94;5052201;28;20055;-64
2023/04/29 10:02:47;;;;;;;14.73;8.88;;;;;;;17.38;62.07;101903.31;5051979;28;20017;-65
2023/04/29 10:05:14;;;;;;;11.68;9.05;;;;;;;17.10;62.45;101911.34;5051709;28;20070;-65
2023/04/29 10:07:40;;;;;;;13.05;9.85;;;;;;;16.88;63.06;101923.75;5052323;28;20483;-65
2023/04/29 10:10:07;;;;;;;15.73;10.00;;;;;;;16.77;62.75;101914.84;5051952;28;20033;-65
2023/04/29 10:12:34;;;;;;;14.25;9.35;;;;;;;16.75;62.62;101922.84;5052595;28;20048;-64
2023/04/29 10:15:05;;;;;;;14.13;9.80;;;;;;;16.87;64.28;101921.97;5051945;28;20083;-64
2023/04/29 10:17:45;;;;;;;17.00;9.30;;;;;;;16.92;63.68;101919.31;5052138;28;20028;-65
2023/04/29 10:20:15;;;;;;;13.82;9.40;;;;;;;16.87;62.02;101924.63;5052032;28;20082;-65
2023/04/29 10:22:48;;;;;;;14.02;9.07;;;;;;;16.90;63.13;101918.41;5052152;28;20032;-65
2023/04/29 10:25:18;;;;;;;15.15;9.13;;;;;;;16.84;61.91;101923.75;5052024;28;20025;-65
2023/04/29 10:27:45;;;;;;;16.77;9.45;;;;;;;16.81;61.91;101931.75;5052399;28;20100;-65
2023/04/29 10:30:15;;;;;;;17.13;8.90;;;;;;;16.65;62.11;101934.31;5052319;28;20433;-64
2023/04/29 10:32:45;;;;;;;14.05;8.95;;;;;;;16.39;61.38;101917.34;5033941;28;20024;-65
2023/04/29 10:35:13;;;;;;;13.90;9.27;;;;;;;16.30;62.84;101925.31;5052072;28;20033;-65
2023/04/29 10:37:39;;;;;;;13.52;9.50;;;;;;;16.21;62.59;101926.16;5034432;28;20045;-65
2023/04/29 10:40:12;;;;;;;13.70;9.30;;;;;;;16.20;63.84;101929.72;5052208;28;20130;-65
2023/04/29 10:42:45;;;;;;;14.15;9.50;;;;;;;16.25;64.27;101928.84;5052094;28;20124;-65
2023/04/29 10:45:33;;;;;;;16.95;9.75;;;;;;;16.21;62.85;101926.16;5052108;28;20024;-64
2023/04/29 10:48:01;;;;;;;12.63;9.18;;;;;;;16.13;62.80;101930.56;5051604;28;20112;-65
2023/04/29 10:50:47;;;;;;;15.23;9.05;;;;;;;16.09;63.21;101936.75;5052190;28;20029;-65
2023/04/29 10:53:20;;;;;;;16.63;9.27;;;;;;;15.98;62.07;101931.38;5040867;28;20040;-65
2023/04/29 10:55:54;;;;;;;12.85;8.57;;;;;;;15.86;61.88;101932.19;5054921;28;20477;-65
2023/04/29 10:58:44;;;;;;;17.60;9.20;;;;;;;15.87;63.50;101935.75;5055448;28;20419;-64
2023/04/29 11:01:15;;;;;;;13.73;8.90;;;;;;;15.81;62.51;101939.28;5055655;28;20327;-65
2023/04/29 11:04:00;;;;;;;16.10;8.80;;;;;;;15.83;63.30;101934.81;5055652;28;20108;-64
2023/04/29 11:06:53;;;;;;;13.90;8.55;;;;;;;15.81;63.52;101935.72;5055715;28;20078;-65
2023/04/29 11:09:20;;;;;;;12.45;8.40;;;;;;;15.80;64.14;101948.13;5055337;28;20108;-65
2023/04/29 11:11:52;;;;;;;12.95;8.75;;;;;;;15.77;62.91;101951.69;5055718;28;20029;-65